»·PEaware :: N9617W KSBA-KRAL

N9617W :: KSBA-KRAL

FLIGHT INFORMATION

Flight Status: Arrived
Operator: Privately registered:
United States
More flights under this callsign
Pilot: Patrick W. (20081)
Aircraft: PIPER PA-28 CHEROKEE ARCHER
(PA28)
More flights by this aircraft type
Origin: KSBA Santa Barbara Mun
United States
Destination: KRAL Riverside Mun
United States
More flights between these airports :: More routes between these airports
Route:
File this flight plan on PilotEdge
Remarks: CAT-11 & I-8 Rated
Altitude:
(Current/Filed)
7,500ft
Speed:
(Current/Filed)
140kts
Departed: 11-Sep-18 01:24 PM
Arrived: 11-Sep-18 02:36 PM
Distance/Time
Traveled:
122nm/1:12
Distance/Time
To Go:
Arrived

Flight Plot

Page will automatically refresh every two minutes.

Flight plan parsing failed; only flown route is shown


Map Options




Map Legend


Flown Route
Filed Route
Departure Airport
Arrival Airport
Navaid (VOR, NDB)
Fix

Horizontal Profiles

Position Reports

Time Latitude Longitude Heading Altitude Ground
Speed
11-Sep-18 13:12 34.432296 -119.836040 164 12ft 0kts
11-Sep-18 13:13 34.432295 -119.836040 164 12ft 0kts
11-Sep-18 13:14 34.432295 -119.836040 164 12ft 0kts
11-Sep-18 13:15 34.432295 -119.836040 164 12ft 0kts
11-Sep-18 13:16 34.432295 -119.836040 164 12ft 0kts
11-Sep-18 13:17 34.432295 -119.836040 164 12ft 0kts
11-Sep-18 13:18 34.432295 -119.836040 164 12ft 0kts
11-Sep-18 13:19 34.432295 -119.836040 164 12ft 0kts
11-Sep-18 13:20 34.432295 -119.836040 164 12ft 0kts
11-Sep-18 13:21 34.432241 -119.836019 160 12ft 0kts
11-Sep-18 13:22 34.432145 -119.835945 116 12ft 0kts
11-Sep-18 13:23 34.431902 -119.835801 240 12ft 2kts
11-Sep-18 13:24 34.430701 -119.839784 253 12ft 2kts
11-Sep-18 13:25 34.430414 -119.840262 162 12ft 6kts
11-Sep-18 13:26 34.412357 -119.836271 163 551ft 86kts
11-Sep-18 13:27 34.389223 -119.830970 155 1467ft 88kts
11-Sep-18 13:28 34.364100 -119.821173 160 1806ft 85kts
11-Sep-18 13:29 34.342342 -119.814026 162 2726ft 78kts
11-Sep-18 13:30 34.334760 -119.795527 103 3254ft 88kts
11-Sep-18 13:31 34.327640 -119.770722 108 3883ft 96kts
11-Sep-18 13:32 34.321891 -119.744352 110 4651ft 78kts
11-Sep-18 13:33 34.325415 -119.717478 77 5261ft 89kts
11-Sep-18 13:34 34.329683 -119.686629 81 5950ft 94kts
11-Sep-18 13:35 34.335552 -119.655479 74 6633ft 96kts
11-Sep-18 13:36 34.341401 -119.623705 73 7281ft 98kts
11-Sep-18 13:37 34.349978 -119.589413 74 7613ft 120kts
11-Sep-18 13:38 34.354687 -119.544792 88 7482ft 134kts
11-Sep-18 13:39 34.359416 -119.501129 80 7397ft 134kts
11-Sep-18 13:40 34.360139 -119.457514 101 7494ft 122kts
11-Sep-18 13:41 34.352115 -119.416429 107 7550ft 128kts
11-Sep-18 13:42 34.353420 -119.372214 84 7456ft 131kts
11-Sep-18 13:43 34.355078 -119.331082 85 7497ft 127kts
11-Sep-18 13:44 34.353905 -119.288384 105 7450ft 128kts
11-Sep-18 13:45 34.344377 -119.247290 113 7499ft 120kts
11-Sep-18 13:46 34.332920 -119.208163 113 7535ft 125kts
11-Sep-18 13:47 34.322570 -119.176108 104 7605ft 124kts
11-Sep-18 13:48 34.315011 -119.126946 104 7546ft 131kts
11-Sep-18 13:49 34.302862 -119.093860 138 7399ft 129kts
11-Sep-18 13:50 34.293491 -119.052085 104 7326ft 130kts
11-Sep-18 13:51 34.287282 -119.001561 118 7190ft 130kts
11-Sep-18 13:52 34.285294 -118.967664 85 7385ft 113kts
11-Sep-18 13:53 34.289487 -118.930485 100 7507ft 119kts
11-Sep-18 13:54 34.284230 -118.881586 99 7500ft 128kts
11-Sep-18 13:55 34.280410 -118.846151 99 7500ft 128kts
11-Sep-18 13:56 34.275837 -118.803517 99 7500ft 127kts
11-Sep-18 13:57 34.271410 -118.761362 99 7499ft 127kts
11-Sep-18 13:58 34.266882 -118.719238 101 7497ft 126kts
11-Sep-18 13:59 34.261780 -118.677908 101 7495ft 125kts
11-Sep-18 14:00 34.255683 -118.637250 104 7494ft 124kts
11-Sep-18 14:01 34.248345 -118.596942 108 7492ft 122kts
11-Sep-18 14:02 34.240015 -118.558087 108 7491ft 121kts
11-Sep-18 14:03 34.231649 -118.518933 108 7491ft 121kts
11-Sep-18 14:04 34.223271 -118.479827 108 7492ft 121kts
11-Sep-18 14:05 34.213579 -118.441314 111 7448ft 125kts
11-Sep-18 14:06 34.202174 -118.398702 111 6936ft 141kts
11-Sep-18 14:07 34.190902 -118.356185 111 6437ft 131kts
11-Sep-18 14:08 34.181072 -118.318775 111 5981ft 129kts
11-Sep-18 14:09 34.171019 -118.280441 111 5520ft 126kts
11-Sep-18 14:10 34.161820 -118.244408 112 5489ft 108kts
11-Sep-18 14:11 34.153393 -118.210180 110 5493ft 104kts
11-Sep-18 14:12 34.145236 -118.176762 111 5492ft 103kts
11-Sep-18 14:13 34.137132 -118.143611 111 5497ft 103kts
11-Sep-18 14:14 34.129108 -118.109919 111 5500ft 105kts
11-Sep-18 14:15 34.120952 -118.076272 113 5502ft 105kts
11-Sep-18 14:16 34.116901 -118.038514 86 5552ft 130kts
11-Sep-18 14:17 34.120435 -117.995162 87 5521ft 127kts
11-Sep-18 14:18 34.115787 -117.953915 102 5525ft 123kts
11-Sep-18 14:19 34.109605 -117.913699 102 5533ft 122kts
11-Sep-18 14:20 34.103054 -117.873217 102 5540ft 123kts
11-Sep-18 14:21 34.092153 -117.835934 112 5545ft 123kts
11-Sep-18 14:22 34.079514 -117.796676 112 5539ft 126kts
11-Sep-18 14:23 34.058986 -117.768973 184 5530ft 117kts
11-Sep-18 14:24 34.025286 -117.770313 186 4971ft 119kts
11-Sep-18 14:25 33.992356 -117.774761 187 4295ft 126kts
11-Sep-18 14:26 33.959072 -117.775623 184 3517ft 108kts
11-Sep-18 14:27 33.942264 -117.754483 91 3510ft 121kts
11-Sep-18 14:28 33.941928 -117.712673 91 3503ft 127kts
11-Sep-18 14:29 33.941363 -117.669778 91 3502ft 128kts
11-Sep-18 14:30 33.940567 -117.626792 91 3501ft 129kts
11-Sep-18 14:31 33.939479 -117.582953 91 3501ft 131kts
11-Sep-18 14:32 33.937613 -117.539176 91 3484ft 130kts
11-Sep-18 14:33 33.941044 -117.501166 67 3060ft 107kts
11-Sep-18 14:34 33.944157 -117.466485 104 2170ft 106kts
11-Sep-18 14:35 33.936209 -117.433345 100 1765ft 96kts
11-Sep-18 14:36 33.943224 -117.412472 3 1358ft 67kts
11-Sep-18 14:37 33.950519 -117.434594 285 831ft 75kts
11-Sep-18 14:38 33.951780 -117.443668 184 781ft 0kts
11-Sep-18 14:39 33.951780 -117.443668 184 781ft 0kts
11-Sep-18 14:40 33.951780 -117.443668 184 781ft 0kts
11-Sep-18 14:41 33.951475 -117.445433 284 771ft 12kts
11-Sep-18 14:42 33.951126 -117.445550 101 770ft 0kts
11-Sep-18 14:43 33.951126 -117.445550 101 770ft 0kts
11-Sep-18 14:44 33.951126 -117.445550 101 770ft 0kts
11-Sep-18 14:45 33.951126 -117.445550 101 770ft 0kts
11-Sep-18 14:46 33.951126 -117.445550 101 770ft 0kts
11-Sep-18 14:47 33.951126 -117.445550 101 770ft 0kts
11-Sep-18 14:48 33.951126 -117.445550 101 770ft 0kts
11-Sep-18 14:49 33.951126 -117.445550 101 770ft 0kts
11-Sep-18 14:50 33.951126 -117.445550 101 770ft 0kts
11-Sep-18 14:51 33.951126 -117.445550 101 770ft 0kts
11-Sep-18 14:52 33.951126 -117.445550 101 770ft 0kts

Navigation Log

Ident Type
Flight plan parsing failed, navigation log unavailable